createdAt,value
2022-08-20T00:02:15.476Z,26.39
2022-08-20T00:04:44.239Z,26.12
2022-08-20T00:07:14.098Z,25.89
2022-08-20T00:09:43.558Z,25.68
2022-08-20T00:12:16.440Z,26.01
2022-08-20T00:14:44.819Z,28.14
2022-08-20T00:17:12.993Z,29.24
2022-08-20T00:19:41.168Z,28.54
2022-08-20T00:22:09.546Z,27.70
2022-08-20T00:24:37.927Z,27.12
2022-08-20T00:27:06.306Z,26.73
2022-08-20T00:29:34.494Z,26.45
2022-08-20T00:32:02.551Z,26.21
2022-08-20T00:34:30.826Z,26.48
2022-08-20T00:36:59.002Z,28.44
2022-08-20T00:39:27.892Z,29.40
2022-08-20T00:41:55.930Z,28.66
2022-08-20T00:44:24.099Z,27.85
2022-08-20T00:46:54.340Z,27.28
2022-08-20T00:49:30.793Z,26.87
2022-08-20T00:52:12.763Z,26.54
2022-08-20T00:54:49.114Z,26.26
2022-08-20T00:57:23.258Z,26.01
2022-08-20T00:59:52.919Z,26.42
2022-08-20T01:02:25.614Z,28.46
2022-08-20T01:04:55.466Z,29.42
2022-08-20T01:07:35.269Z,28.64
2022-08-20T01:10:12.424Z,27.73
2022-08-20T01:12:44.649Z,27.12
2022-08-20T01:15:17.408Z,26.70
2022-08-20T01:17:50.334Z,26.42
2022-08-20T01:20:30.094Z,27.62
2022-08-20T01:23:28.519Z,29.47
2022-08-20T01:26:10.327Z,29.12
2022-08-20T01:28:50.718Z,28.10
2022-08-20T01:31:25.907Z,27.37
2022-08-20T01:33:56.456Z,26.88
2022-08-20T01:36:32.237Z,26.52
2022-08-20T01:39:01.104Z,26.72
2022-08-20T01:42:20.282Z,28.56
2022-08-20T01:44:48.372Z,29.16
2022-08-20T01:47:29.792Z,28.20
2022-08-20T01:50:08.922Z,27.37
2022-08-20T01:52:52.354Z,26.83
2022-08-20T01:55:21.080Z,26.42
2022-08-20T01:57:50.071Z,26.67
2022-08-20T02:00:20.503Z,28.54
2022-08-20T02:02:51.010Z,29.42
2022-08-20T02:05:20.392Z,28.63
2022-08-20T02:07:48.777Z,27.76
2022-08-20T02:10:18.790Z,27.12
2022-08-20T02:12:47.174Z,26.64
2022-08-20T02:15:15.632Z,26.77
2022-08-20T02:17:44.919Z,28.59
2022-08-20T02:20:20.803Z,29.38
2022-08-20T02:22:55.428Z,28.50
2022-08-20T02:25:26.908Z,27.61
2022-08-20T02:27:57.253Z,26.99
2022-08-20T02:30:30.190Z,26.53
2022-08-20T02:32:59.106Z,26.70
2022-08-20T02:35:28.278Z,28.52
2022-08-20T02:37:56.871Z,29.27
2022-08-20T02:40:30.886Z,28.39
2022-08-20T02:43:01.711Z,27.44
2022-08-20T02:45:36.336Z,26.79
2022-08-20T02:48:05.579Z,26.28
2022-08-20T02:50:33.816Z,26.54
2022-08-20T02:53:02.290Z,28.33
2022-08-20T02:55:30.719Z,28.62
2022-08-20T02:58:00.690Z,27.59
2022-08-20T03:00:37.817Z,26.60
2022-08-20T03:03:11.782Z,25.87
2022-08-20T03:05:43.129Z,25.92
2022-08-20T03:08:13.556Z,27.72
2022-08-20T03:10:43.816Z,28.04
2022-08-20T03:13:13.720Z,27.11
2022-08-20T03:15:45.450Z,26.32
2022-08-20T03:18:15.978Z,25.76
2022-08-20T03:23:41.716Z,24.96
2022-08-20T03:26:13.064Z,25.22
2022-08-20T03:28:41.855Z,27.19
2022-08-20T03:31:10.677Z,27.73
2022-08-20T03:33:48.923Z,26.90
2022-08-20T03:36:28.364Z,26.08
2022-08-20T03:38:59.262Z,25.53
2022-08-20T03:41:28.954Z,25.15
2022-08-20T03:43:57.623Z,24.83
2022-08-20T03:46:26.210Z,25.13
2022-08-20T03:48:59.567Z,27.16
2022-08-20T03:51:30.880Z,27.79
2022-08-20T03:53:59.741Z,26.92
2022-08-20T03:56:28.528Z,26.16
2022-08-20T03:58:56.652Z,25.63
2022-08-20T04:01:44.794Z,25.24
2022-08-20T04:04:13.326Z,24.87
2022-08-20T04:06:42.697Z,25.14
2022-08-20T04:09:12.478Z,27.16
2022-08-20T04:11:42.353Z,27.88
2022-08-20T04:14:16.644Z,27.04
2022-08-20T04:16:48.992Z,26.19
2022-08-20T04:19:17.426Z,25.64
2022-08-20T04:21:48.881Z,25.27
2022-08-20T04:24:21.919Z,24.96
2022-08-20T04:26:56.178Z,24.69
2022-08-20T04:29:31.970Z,25.12
2022-08-20T04:32:03.346Z,27.24
2022-08-20T04:34:35.261Z,27.86
2022-08-20T04:37:04.126Z,27.02
2022-08-20T04:39:32.939Z,26.25
2022-08-20T04:42:01.095Z,25.71
2022-08-20T04:44:29.370Z,25.30
2022-08-20T04:46:58.261Z,24.99
2022-08-20T04:49:26.636Z,24.72
2022-08-20T04:51:55.051Z,25.05
2022-08-20T04:54:23.299Z,27.06
2022-08-20T04:56:51.777Z,27.67
2022-08-20T04:59:20.052Z,26.84
2022-08-20T05:01:48.232Z,26.05
2022-08-20T05:04:16.503Z,25.50
2022-08-20T05:06:45.502Z,25.13
2022-08-20T05:09:13.775Z,24.85
2022-08-20T05:11:41.951Z,24.65
2022-08-20T05:14:10.128Z,25.00
2022-08-20T05:16:40.636Z,27.07
2022-08-20T05:19:12.658Z,27.88
2022-08-20T05:21:41.549Z,27.07
2022-08-20T05:24:11.575Z,26.32
2022-08-20T05:26:40.514Z,25.79
2022-08-20T05:29:08.689Z,25.43
2022-08-20T05:31:37.783Z,25.17
2022-08-20T05:34:11.345Z,24.95
2022-08-20T05:36:49.075Z,24.74
2022-08-20T05:39:20.942Z,25.33
2022-08-20T05:41:51.423Z,27.43
2022-08-20T05:44:20.189Z,27.83
2022-08-20T05:46:49.048Z,26.97
2022-08-20T05:49:20.427Z,26.22
2022-08-20T05:51:51.235Z,25.69
2022-08-20T05:54:19.817Z,25.33
2022-08-20T05:56:48.195Z,25.07
2022-08-20T05:59:19.973Z,24.85
2022-08-20T06:01:52.639Z,25.33
2022-08-20T06:04:32.276Z,27.45
2022-08-20T06:07:07.105Z,28.25
2022-08-20T06:09:36.572Z,27.38
2022-08-20T06:12:09.093Z,26.62
2022-08-20T06:14:37.668Z,26.08
2022-08-20T06:17:09.530Z,25.72
2022-08-20T06:19:38.730Z,25.43
2022-08-20T06:22:19.621Z,25.20
2022-08-20T06:24:52.734Z,24.96
2022-08-20T06:27:21.665Z,25.37
2022-08-20T06:29:51.109Z,27.44
2022-08-20T06:32:32.179Z,28.37
2022-08-20T06:35:03.827Z,27.53
2022-08-20T06:37:36.752Z,26.74
2022-08-20T06:40:13.251Z,26.20
2022-08-20T06:42:48.105Z,25.80
2022-08-20T06:45:24.705Z,25.53
2022-08-20T06:47:59.523Z,25.29
2022-08-20T06:50:32.182Z,25.09
2022-08-20T06:53:00.562Z,25.55
2022-08-20T06:55:30.694Z,27.63
2022-08-20T06:58:03.770Z,28.59
2022-08-20T07:00:34.123Z,27.80
2022-08-20T07:03:03.310Z,26.97
2022-08-20T07:05:34.333Z,26.42
2022-08-20T07:08:04.839Z,26.04
2022-08-20T07:10:33.036Z,25.79
2022-08-20T07:13:01.209Z,25.61
2022-08-20T07:15:30.658Z,25.45
2022-08-20T07:18:02.063Z,25.89
2022-08-20T07:20:32.930Z,28.03
2022-08-20T07:23:01.281Z,28.76
2022-08-20T07:25:30.988Z,27.99
2022-08-20T07:28:14.068Z,27.29
2022-08-20T07:34:00.946Z,26.33
2022-08-20T07:36:29.072Z,26.11
2022-08-20T07:38:57.498Z,25.92
2022-08-20T07:41:25.878Z,25.76
2022-08-20T07:43:54.052Z,26.13
2022-08-20T07:46:22.429Z,28.16
2022-08-20T07:48:52.037Z,29.04
2022-08-20T07:51:22.669Z,28.32
2022-08-20T07:53:52.194Z,27.59
2022-08-20T07:56:24.192Z,27.10
2022-08-20T07:58:55.798Z,26.76
2022-08-20T08:01:28.755Z,26.52
2022-08-20T08:03:59.204Z,26.33
2022-08-20T08:06:31.083Z,26.17
2022-08-20T08:09:05.692Z,26.04
2022-08-20T08:11:37.866Z,26.53
2022-08-20T08:14:10.212Z,28.67
2022-08-20T08:16:39.572Z,29.51
2022-08-20T08:19:12.136Z,28.78
2022-08-20T08:21:41.638Z,28.06
2022-08-20T08:24:12.743Z,27.58
2022-08-20T08:26:42.637Z,27.24
2022-08-20T08:29:12.214Z,27.00
2022-08-20T08:31:41.481Z,26.82
2022-08-20T08:34:10.126Z,26.67
2022-08-20T08:36:39.669Z,26.54
2022-08-20T08:39:08.050Z,26.44
2022-08-20T08:41:40.831Z,26.36
2022-08-20T08:44:14.842Z,26.95
2022-08-20T08:46:49.269Z,29.11
2022-08-20T08:49:22.863Z,30.11
2022-08-20T08:51:57.591Z,29.43
2022-08-20T08:54:31.601Z,28.69
2022-08-20T08:57:00.527Z,28.22
2022-08-20T08:59:58.280Z,27.93
2022-08-20T09:02:23.185Z,27.70
2022-08-20T09:04:51.866Z,27.55
2022-08-20T09:07:20.734Z,27.42
2022-08-20T09:09:48.908Z,27.30
2022-08-20T09:12:23.840Z,27.22
2022-08-20T09:14:52.425Z,27.16
2022-08-20T09:17:22.751Z,27.13
2022-08-20T09:19:52.625Z,27.10
2022-08-20T09:22:22.945Z,27.67
2022-08-20T09:24:51.367Z,29.75
2022-08-20T09:27:19.814Z,30.48
2022-08-20T09:29:49.287Z,29.85
2022-08-20T09:32:22.898Z,29.28
2022-08-20T09:34:59.001Z,28.93
2022-08-20T09:37:36.615Z,28.71
2022-08-20T09:40:07.260Z,28.57
2022-08-20T09:42:41.049Z,28.47
2022-08-20T09:45:12.599Z,28.41
2022-08-20T09:47:54.799Z,28.35
2022-08-20T09:50:28.607Z,28.33
2022-08-20T09:52:59.859Z,28.33
2022-08-20T09:55:50.456Z,28.35
2022-08-20T09:58:33.168Z,28.38
2022-08-20T10:01:14.033Z,28.42
2022-08-20T10:03:44.276Z,28.47
2022-08-20T10:06:15.043Z,28.52
2022-08-20T10:08:44.276Z,28.58
2022-08-20T10:11:13.046Z,28.65
2022-08-20T10:13:41.259Z,28.71
2022-08-20T10:16:09.435Z,28.77
2022-08-20T10:18:37.607Z,28.81
2022-08-20T10:21:13.000Z,28.87
2022-08-20T10:23:41.856Z,28.93
2022-08-20T10:26:11.858Z,28.99
2022-08-20T10:28:40.136Z,29.05
2022-08-20T10:31:12.919Z,29.12
2022-08-20T10:33:42.327Z,29.18
2022-08-20T10:36:17.354Z,29.25
2022-08-20T10:38:45.644Z,29.32
2022-08-20T10:41:13.807Z,29.40
2022-08-20T10:43:41.985Z,29.47
2022-08-20T10:46:10.255Z,29.52
2022-08-20T10:48:38.837Z,29.58
2022-08-20T10:51:07.216Z,29.63
2022-08-20T10:53:36.108Z,29.68
2022-08-20T10:56:04.953Z,29.74
2022-08-20T10:58:39.520Z,29.78
2022-08-20T11:01:08.719Z,29.83
2022-08-20T11:03:36.892Z,29.87
2022-08-20T11:06:05.355Z,29.91
2022-08-20T11:08:36.089Z,29.93
2022-08-20T11:11:05.751Z,29.96
2022-08-20T11:13:35.731Z,30.01
2022-08-20T11:16:05.064Z,30.06
2022-08-20T11:18:33.647Z,30.11
2022-08-20T11:21:02.405Z,30.16
2022-08-20T11:24:36.627Z,30.21
2022-08-20T11:27:09.101Z,30.24
2022-08-20T11:29:39.351Z,30.26
2022-08-20T11:32:07.497Z,30.27
2022-08-20T11:34:35.777Z,30.29
2022-08-20T11:37:03.948Z,30.33
2022-08-20T11:39:32.121Z,30.35
2022-08-20T11:42:00.502Z,30.39
2022-08-20T11:44:29.032Z,30.45
2022-08-20T11:47:03.614Z,30.51
2022-08-20T11:49:34.239Z,30.56
2022-08-20T11:52:03.540Z,30.60
2022-08-20T11:54:32.943Z,30.63
2022-08-20T11:57:01.224Z,30.66
2022-08-20T11:59:29.498Z,30.69
2022-08-20T12:02:02.888Z,30.72
2022-08-20T12:04:33.423Z,30.74
2022-08-20T12:07:10.423Z,30.74
2022-08-20T12:09:43.088Z,30.74
2022-08-20T12:12:23.850Z,30.77
2022-08-20T12:14:54.379Z,30.80
2022-08-20T12:17:27.981Z,30.83
2022-08-20T12:19:58.512Z,30.87
2022-08-20T12:22:27.196Z,30.90
2022-08-20T12:24:55.370Z,30.92
2022-08-20T12:27:27.026Z,30.95
2022-08-20T12:29:57.656Z,30.98
2022-08-20T12:32:28.085Z,31.00
2022-08-20T12:34:57.795Z,31.02
2022-08-20T12:37:29.963Z,31.02
2022-08-20T12:40:00.550Z,31.00
2022-08-20T12:42:30.712Z,31.00
2022-08-20T12:45:00.425Z,31.00
2022-08-20T12:47:32.284Z,31.01
2022-08-20T12:50:22.582Z,30.99
2022-08-20T12:52:50.984Z,30.98
2022-08-20T12:55:20.190Z,30.96
2022-08-20T12:57:54.300Z,30.94
2022-08-20T13:00:25.921Z,30.93
2022-08-20T13:02:57.108Z,30.92
2022-08-20T13:05:25.955Z,30.91
2022-08-20T13:07:55.155Z,30.90
2022-08-20T13:10:26.911Z,30.89
2022-08-20T13:12:55.931Z,30.89
2022-08-20T13:15:25.574Z,30.88
2022-08-20T13:17:55.326Z,30.86
2022-08-20T13:20:26.161Z,30.82
2022-08-20T13:23:00.069Z,30.76
2022-08-20T13:25:28.244Z,30.70
2022-08-20T13:27:59.081Z,30.64
2022-08-20T13:30:27.564Z,30.56
2022-08-20T13:32:56.105Z,30.47
2022-08-20T13:35:24.422Z,30.40
2022-08-20T13:37:52.799Z,30.33
2022-08-20T13:40:21.214Z,30.26
2022-08-20T13:42:49.587Z,30.20
2022-08-20T13:45:17.938Z,30.14
2022-08-20T13:47:46.317Z,30.08
2022-08-20T13:50:20.331Z,30.03
2022-08-20T13:52:48.520Z,29.96
2022-08-20T13:55:19.747Z,29.91
2022-08-20T13:57:49.164Z,29.86
2022-08-20T14:00:31.278Z,29.82
2022-08-20T14:03:02.088Z,29.76
2022-08-20T14:05:31.567Z,29.73
2022-08-20T14:08:12.129Z,29.69
2022-08-20T14:10:42.606Z,29.65
2022-08-20T14:13:15.454Z,29.62
2022-08-20T14:15:45.732Z,29.59
2022-08-20T14:18:15.707Z,29.56
2022-08-20T14:20:45.588Z,29.53
2022-08-20T14:23:15.229Z,29.51
2022-08-20T14:25:46.987Z,29.49
2022-08-20T14:28:21.104Z,29.46
2022-08-20T14:30:53.204Z,29.44
2022-08-20T14:33:23.926Z,29.41
2022-08-20T14:35:53.142Z,29.40
2022-08-20T14:38:21.476Z,29.38
2022-08-20T14:40:50.759Z,29.38
2022-08-20T14:43:19.258Z,29.36
2022-08-20T14:45:47.430Z,29.34
2022-08-20T14:48:15.811Z,29.33
2022-08-20T14:50:44.500Z,29.32
2022-08-20T14:53:12.671Z,29.31
2022-08-20T14:55:40.950Z,29.29
2022-08-20T14:58:10.965Z,29.28
2022-08-20T15:00:40.043Z,29.28
2022-08-20T15:03:08.335Z,29.26
2022-08-20T15:05:39.743Z,29.25
2022-08-20T15:08:08.999Z,29.24
2022-08-20T15:10:39.457Z,29.24
2022-08-20T15:13:08.067Z,29.23
2022-08-20T15:15:36.265Z,29.22
2022-08-20T15:18:04.382Z,29.22
2022-08-20T15:20:34.625Z,29.22
2022-08-20T15:23:03.411Z,29.21
2022-08-20T15:25:36.197Z,29.22
2022-08-20T15:28:08.927Z,29.21
2022-08-20T15:30:40.572Z,29.20
2022-08-20T15:33:10.240Z,29.20
2022-08-20T15:35:38.661Z,29.20
2022-08-20T15:38:06.939Z,29.20
2022-08-20T15:40:35.159Z,29.19
2022-08-20T15:43:05.130Z,29.17
2022-08-20T15:45:35.249Z,29.16
2022-08-20T15:48:15.360Z,29.15
2022-08-20T15:51:00.579Z,29.12
2022-08-20T15:53:47.492Z,29.11
2022-08-20T15:56:25.597Z,29.03
2022-08-20T15:58:55.151Z,28.89
2022-08-20T16:01:46.928Z,28.75
2022-08-20T16:04:57.088Z,28.59
2022-08-20T16:07:29.014Z,28.42
2022-08-20T16:10:16.790Z,28.27
2022-08-20T16:12:52.626Z,28.08
2022-08-20T16:15:26.439Z,27.91
2022-08-20T16:18:08.550Z,27.75
2022-08-20T16:20:43.850Z,27.60
2022-08-20T16:23:18.781Z,27.46
2022-08-20T16:25:52.930Z,27.34
2022-08-20T16:28:29.095Z,27.25
2022-08-20T16:31:05.766Z,27.18
2022-08-20T16:34:33.062Z,27.11
2022-08-20T16:37:33.148Z,27.03
2022-08-20T16:40:23.086Z,26.97
2022-08-20T16:42:53.800Z,26.88
2022-08-20T16:45:27.059Z,26.81
2022-08-20T16:48:01.379Z,26.73
2022-08-20T16:50:35.284Z,26.65
2022-08-20T16:53:03.561Z,26.58
2022-08-20T16:55:31.842Z,26.52
2022-08-20T16:58:00.729Z,26.46
2022-08-20T17:00:39.050Z,26.41
2022-08-20T17:03:31.352Z,26.36
2022-08-20T17:06:32.733Z,26.32
2022-08-20T17:09:11.470Z,26.27
2022-08-20T17:11:41.164Z,26.22
2022-08-20T17:14:16.406Z,26.17
2022-08-20T17:16:47.651Z,26.11
2022-08-20T17:19:30.671Z,26.07
2022-08-20T17:22:12.057Z,26.00
2022-08-20T17:24:40.638Z,25.93
2022-08-20T17:27:16.305Z,25.86
2022-08-20T17:29:55.316Z,25.80
2022-08-20T17:32:29.330Z,25.74
2022-08-20T17:35:00.744Z,25.69
2022-08-20T17:37:39.803Z,25.64
2022-08-20T17:40:26.515Z,25.59
2022-08-20T17:43:01.801Z,25.53
2022-08-20T17:45:44.981Z,25.47
2022-08-20T17:48:26.780Z,25.42
2022-08-20T17:50:55.406Z,25.37
2022-08-20T17:53:31.874Z,25.33
2022-08-20T17:56:03.788Z,25.30
2022-08-20T17:58:54.274Z,25.27
2022-08-20T18:01:26.160Z,25.25
2022-08-20T18:03:55.038Z,25.23
2022-08-20T18:06:30.292Z,25.20
2022-08-20T18:09:10.945Z,25.19
2022-08-20T18:11:51.253Z,25.17
2022-08-20T18:14:26.750Z,25.14
2022-08-20T18:17:35.168Z,25.11
2022-08-20T18:20:15.219Z,25.08
2022-08-20T18:22:57.413Z,25.05
2022-08-20T18:25:32.692Z,25.03
2022-08-20T18:28:19.165Z,25.00
2022-08-20T18:30:50.923Z,24.97
2022-08-20T18:33:38.657Z,25.41
2022-08-20T18:36:12.665Z,27.80
2022-08-20T18:38:42.273Z,28.90
2022-08-20T18:41:13.012Z,28.22
2022-08-20T18:43:42.820Z,27.47
2022-08-20T18:46:21.288Z,26.98
2022-08-20T18:49:02.662Z,26.63
2022-08-20T18:51:51.271Z,26.37
2022-08-20T18:54:32.595Z,26.12
2022-08-20T18:57:23.155Z,25.92
2022-08-20T19:00:01.542Z,25.72
2022-08-20T19:02:33.736Z,25.55
2022-08-20T19:05:10.817Z,25.41
2022-08-20T19:07:50.870Z,25.29
2022-08-20T19:10:46.826Z,25.17
2022-08-20T19:13:36.375Z,25.03
2022-08-20T19:16:15.268Z,25.64
2022-08-20T19:18:48.288Z,27.94
2022-08-20T19:21:23.012Z,28.66
2022-08-20T19:23:56.310Z,27.79
2022-08-20T19:26:29.497Z,26.98
2022-08-20T19:29:07.500Z,26.42
2022-08-20T19:31:37.216Z,26.04
2022-08-20T19:34:19.993Z,25.77
2022-08-20T19:37:32.729Z,25.54
2022-08-20T19:40:05.578Z,25.29
2022-08-20T19:42:42.509Z,25.65
2022-08-20T19:45:18.979Z,27.83
2022-08-20T19:47:57.494Z,28.74
2022-08-20T19:50:46.762Z,27.87
2022-08-20T19:53:30.773Z,27.00
2022-08-20T19:56:07.316Z,26.46
2022-08-20T19:58:36.513Z,26.10
2022-08-20T20:01:15.537Z,25.82
2022-08-20T20:03:56.046Z,25.59
2022-08-20T20:06:25.898Z,25.38
2022-08-20T20:09:01.635Z,25.20
2022-08-20T20:11:45.474Z,25.62
2022-08-20T20:14:17.948Z,27.89
2022-08-20T20:16:49.193Z,28.48
2022-08-20T20:19:27.167Z,27.63
2022-08-20T20:22:33.674Z,26.82
2022-08-20T20:25:07.990Z,26.21
2022-08-20T20:27:37.087Z,25.86
2022-08-20T20:30:11.198Z,25.58
2022-08-20T20:32:42.751Z,25.31
2022-08-20T20:35:10.822Z,25.09
2022-08-20T20:37:50.183Z,24.88
2022-08-20T20:40:33.945Z,25.37
2022-08-20T20:43:07.601Z,27.68
2022-08-20T20:45:44.516Z,28.32
2022-08-20T20:48:15.520Z,27.41
2022-08-20T20:50:44.000Z,26.61
2022-08-20T20:53:13.608Z,26.04
2022-08-20T20:55:53.046Z,25.63
2022-08-20T20:58:21.323Z,25.30
2022-08-20T21:00:51.853Z,25.06
2022-08-20T21:03:20.027Z,25.36
2022-08-20T21:05:48.508Z,27.35
2022-08-20T21:08:16.688Z,28.27
2022-08-20T21:10:44.754Z,27.50
2022-08-20T21:13:13.235Z,26.66
2022-08-20T21:15:41.361Z,26.06
2022-08-20T21:18:10.096Z,25.65
2022-08-20T21:20:38.372Z,25.32
2022-08-20T21:23:06.753Z,25.06
2022-08-20T21:25:36.496Z,25.33
2022-08-20T21:28:05.144Z,27.32
2022-08-20T21:30:33.973Z,28.24
2022-08-20T21:33:02.621Z,27.42
2022-08-20T21:35:30.794Z,26.55
2022-08-20T21:37:58.865Z,25.95
2022-08-20T21:40:28.450Z,25.52
2022-08-20T21:42:57.550Z,25.19
2022-08-20T21:45:28.502Z,24.93
2022-08-20T21:47:57.602Z,25.25
2022-08-20T21:50:26.761Z,27.28
2022-08-20T21:53:12.243Z,28.22
2022-08-20T21:55:41.273Z,27.31
2022-08-20T21:58:10.501Z,26.51
2022-08-20T22:01:08.287Z,25.95
2022-08-20T22:03:38.812Z,25.47
2022-08-20T22:06:12.062Z,25.14
2022-08-20T22:08:40.749Z,24.85
2022-08-20T22:11:11.188Z,25.19
2022-08-20T22:13:40.680Z,27.28
2022-08-20T22:16:11.926Z,28.11
2022-08-20T22:18:40.101Z,27.28
2022-08-20T22:21:14.426Z,26.45
2022-08-20T22:23:42.593Z,25.85
2022-08-20T22:26:11.240Z,25.42
2022-08-20T22:28:39.402Z,25.08
2022-08-20T22:31:08.987Z,24.76
2022-08-20T22:33:39.384Z,25.16
2022-08-20T22:36:08.242Z,27.15
2022-08-20T22:38:36.756Z,28.04
2022-08-20T22:41:09.086Z,27.21
2022-08-20T22:43:45.037Z,26.32
2022-08-20T22:46:29.029Z,25.64
2022-08-20T22:48:57.815Z,25.21
2022-08-20T22:51:32.441Z,24.88
2022-08-20T22:54:06.679Z,25.24
2022-08-20T22:56:34.946Z,27.33
2022-08-20T22:59:04.848Z,27.91
2022-08-20T23:01:33.194Z,27.04
2022-08-20T23:04:07.443Z,26.24
2022-08-20T23:06:35.718Z,25.66
2022-08-20T23:09:04.368Z,25.25
2022-08-20T23:11:33.298Z,24.92
2022-08-20T23:14:01.473Z,25.15
2022-08-20T23:16:30.061Z,27.11
2022-08-20T23:18:58.330Z,27.83
2022-08-20T23:21:26.504Z,26.99
2022-08-20T23:23:54.881Z,26.18
2022-08-20T23:26:23.877Z,25.60
2022-08-20T23:28:52.051Z,25.19
2022-08-20T23:31:20.225Z,24.85
2022-08-20T23:33:48.606Z,25.10
2022-08-20T23:36:19.487Z,27.10
2022-08-20T23:38:47.817Z,27.91
2022-08-20T23:41:15.930Z,27.06
2022-08-20T23:43:44.473Z,26.22
2022-08-20T23:46:13.282Z,25.64
2022-08-20T23:48:41.435Z,25.22
2022-08-20T23:51:10.343Z,24.87
2022-08-20T23:53:39.013Z,25.07
2022-08-20T23:56:07.544Z,27.01
2022-08-20T23:58:35.844Z,27.76
